Time;durP1;ratioP1;P1;durP2;ratioP2;P2;SDS_P1;SDS_P2;PMS_P1;PMS_P2;Temp;Humidity;BMP_temperature;BMP_pressure;BME280_temperature;BME280_humidity;BME280_pressure;Samples;Min_cycle;Max_cycle;Signal;HPM_P1;HPM_P2
2021/09/03 00:01:30;;;;;;;;;;;;;;;;;;5133865;27;19908;-67
2021/09/03 00:03:56;;;;;;;;;;;;;;;;;;5152838;27;19918;-66
2021/09/03 00:06:22;;;;;;;;;;;;;;;;;;5152811;27;19907;-66
2021/09/03 00:08:48;;;;;;;;;;;;;;;;;;5152400;27;19953;-66
2021/09/03 00:11:14;;;;;;;;;;;;;;;;;;5152684;27;20340;-67
2021/09/03 00:13:40;;;;;;;;;;;;;;;;;;5152546;27;19908;-67
2021/09/03 00:16:06;;;;;;;;;;;;;;;;;;5151934;27;19941;-66
2021/09/03 00:18:32;;;;;;;;;;;;;;;;;;5152832;27;19912;-67
2021/09/03 00:20:58;;;;;;;;;;;;;;;;;;5152397;27;19943;-67
2021/09/03 00:23:24;;;;;;;;;;;;;;;;;;5152033;27;20449;-67
2021/09/03 00:25:50;;;;;;;;;;;;;;;;;;5133788;27;19913;-67
2021/09/03 00:28:16;;;;;;;;;;;;;;;;;;5152316;27;20298;-67
2021/09/03 00:30:42;;;;;;;;;;;;;;;;;;5151895;27;19908;-67
2021/09/03 00:36:22;;;;;;;;;;;;;;;;;;5091958;27;2312208;-68
2021/09/03 00:38:48;;;;;;;;;;;;;;;;;;5173845;27;19911;-68
2021/09/03 00:43:52;;;;;;;;;;;;;;;;;;5111340;27;19916;-67
2021/09/03 00:48:19;;;;;;;;;;;;;;;;;;5112104;27;19916;-67
2021/09/03 00:52:07;;;;;;;;;;;;;;;;;;5111419;27;19922;-67
2021/09/03 00:54:33;;;;;;;;;;;;;;;;;;5110376;28;20336;-67
2021/09/03 00:56:59;;;;;;;;;;;;;;;;;;5112230;28;19995;-67
2021/09/03 01:01:09;;;;;;;;;;;;;;;;;;5112073;27;20296;-66
2021/09/03 01:03:35;;;;;;;;;;;;;;;;;;5111704;28;19999;-69
2021/09/03 01:06:05;;;;;;;;;;;;;;;;;;5111235;28;19943;-66
2021/09/03 01:12:10;;;;;;;;;;;;;;;;;;5111795;27;19916;-66
2021/09/03 01:16:41;;;;;;;;;;;;;;;;;;5111820;27;19916;-67
2021/09/03 01:19:07;;;;;;;;;;;;;;;;;;5111253;28;20007;-67
2021/09/03 01:21:33;;;;;;;;;;;;;;;;;;5112025;28;20420;-69
2021/09/03 01:24:08;;;;;;;;;;;;;;;;;;5112389;27;19916;-67
2021/09/03 01:26:35;;;;;;;;;;;;;;;;;;5111283;28;20002;-67
2021/09/03 01:31:26;;;;;;;;;;;;;;;;;;5153085;27;20323;-66
2021/09/03 01:33:55;;;;;;;;;;;;;;;;;;5152735;27;19911;-67
2021/09/03 01:36:21;;;;;;;;;;;;;;;;;;5152808;27;20405;-67
2021/09/03 01:38:47;;;;;;;;;;;;;;;;;;5153343;27;19907;-66
2021/09/03 01:41:13;;;;;;;;;;;;;;;;;;5152338;27;20369;-66
2021/09/03 01:43:39;;;;;;;;;;;;;;;;;;5152753;27;19953;-66
2021/09/03 01:52:08;;;;;;;;;;;;;;;;;;5112035;27;19918;-66
2021/09/03 01:54:34;;;;;;;;;;;;;;;;;;5111262;28;20006;-68
2021/09/03 02:02:58;;;;;;;;;;;;;;;;;;5092133;27;19913;-67
2021/09/03 02:05:25;;;;;;;;;;;;;;;;;;5091265;28;20360;-68
2021/09/03 02:07:50;;;;;;;;;;;;;;;;;;5090825;28;19992;-68
2021/09/03 02:10:16;;;;;;;;;;;;;;;;;;5091215;28;20331;-67
2021/09/03 02:12:42;;;;;;;;;;;;;;;;;;5091203;28;19909;-67
2021/09/03 02:15:55;;;;;;;;;;;;;;;;;;5091319;27;19916;-66
2021/09/03 02:18:21;;;;;;;;;;;;;;;;;;5091326;28;20003;-66
2021/09/03 02:24:00;;;;;;;;;;;;;;;;;;5111576;27;20371;-66
2021/09/03 02:27:24;;;;;;;;;;;;;;;;;;5112381;27;19916;-67
2021/09/03 02:29:50;;;;;;;;;;;;;;;;;;5111304;28;19957;-67
2021/09/03 02:33:58;;;;;;;;;;;;;;;;;;5112188;27;19922;-66
2021/09/03 02:36:55;;;;;;;;;;;;;;;;;;5111367;27;20372;-67
2021/09/03 02:41:37;;;;;;;;;;;;;;;;;;5153455;27;19998;-67
2021/09/03 02:44:03;;;;;;;;;;;;;;;;;;5134019;27;19954;-66
2021/09/03 02:46:29;;;;;;;;;;;;;;;;;;5152864;27;19939;-67
2021/09/03 02:48:55;;;;;;;;;;;;;;;;;;5152834;27;19919;-67
2021/09/03 02:51:21;;;;;;;;;;;;;;;;;;5152445;27;20314;-67
2021/09/03 02:53:47;;;;;;;;;;;;;;;;;;5152724;27;19943;-67
2021/09/03 02:57:57;;;;;;;;;;;;;;;;;;5111720;27;19916;-69
2021/09/03 03:00:23;;;;;;;;;;;;;;;;;;5111900;28;19916;-68
2021/09/03 03:02:51;;;;;;;;;;;;;;;;;;5111928;28;19915;-68
2021/09/03 03:09:29;;;;;;;;;;;;;;;;;;5091992;27;20293;-67
2021/09/03 03:13:48;;;;;;;;;;;;;;;;;;5111883;27;20377;-69
2021/09/03 03:16:14;;;;;;;;;;;;;;;;;;5110442;28;19918;-67
2021/09/03 03:20:45;;;;;;;;;;;;;;;;;;5153476;27;19998;-67
2021/09/03 03:23:11;;;;;;;;;;;;;;;;;;5152885;27;19911;-69
2021/09/03 03:25:37;;;;;;;;;;;;;;;;;;5152675;27;19915;-68
2021/09/03 03:29:33;;;;;;;;;;;;;;;;;;5092177;28;19923;-69
2021/09/03 03:34:22;;;;;;;;;;;;;;;;;;5091626;27;19919;-69
2021/09/03 03:38:49;;;;;;;;;;;;;;;;;;5153438;27;19994;-67
2021/09/03 03:43:17;;;;;;;;;;;;;;;;;;5112140;27;19922;-67
2021/09/03 03:46:05;;;;;;;;;;;;;;;;;;5111846;27;19916;-67
2021/09/03 03:50:45;;;;;;;;;;;;;;;;;;5112536;27;20368;-67
2021/09/03 03:54:22;;;;;;;;;;;;;;;;;;5091274;28;19913;-67
2021/09/03 03:57:53;;;;;;;;;;;;;;;;;;5091931;27;19917;-68
2021/09/03 04:00:19;;;;;;;;;;;;;;;;;;5090902;28;20015;-68
2021/09/03 04:04:45;;;;;;;;;;;;;;;;;;5112017;27;19923;-69
2021/09/03 04:10:08;;;;;;;;;;;;;;;;;;5111993;27;19916;-69
2021/09/03 04:12:34;;;;;;;;;;;;;;;;;;5110435;28;20395;-68
2021/09/03 04:16:02;;;;;;;;;;;;;;;;;;5091092;27;19917;-69
2021/09/03 04:18:28;;;;;;;;;;;;;;;;;;5091325;28;19999;-69
2021/09/03 04:25:23;;;;;;;;;;;;;;;;;;5112081;27;19923;-69
2021/09/03 04:27:49;;;;;;;;;;;;;;;;;;5110397;28;20351;-70
2021/09/03 04:30:15;;;;;;;;;;;;;;;;;;5111218;28;19915;-70
2021/09/03 04:32:41;;;;;;;;;;;;;;;;;;5110291;28;19958;-68
2021/09/03 04:37:17;;;;;;;;;;;;;;;;;;5090945;27;19912;-67
2021/09/03 04:41:48;;;;;;;;;;;;;;;;;;5091675;27;19916;-70
2021/09/03 04:46:18;;;;;;;;;;;;;;;;;;5091887;27;19916;-69
2021/09/03 04:48:44;;;;;;;;;;;;;;;;;;5090039;28;20357;-69
2021/09/03 04:51:10;;;;;;;;;;;;;;;;;;5090836;28;20098;-67
2021/09/03 04:53:36;;;;;;;;;;;;;;;;;;5091217;28;19909;-69
2021/09/03 04:56:02;;;;;;;;;;;;;;;;;;5091107;28;20341;-67
2021/09/03 04:59:45;;;;;;;;;;;;;;;;;;5111840;27;19916;-67
2021/09/03 05:02:11;;;;;;;;;;;;;;;;;;5111441;28;19919;-68
2021/09/03 05:04:37;;;;;;;;;;;;;;;;;;5111147;28;19908;-67
2021/09/03 05:08:06;;;;;;;;;;;;;;;;;;5111824;27;19916;-68
2021/09/03 05:12:14;;;;;;;;;;;;;;;;;;5089457;28;20285;-68
2021/09/03 05:14:40;;;;;;;;;;;;;;;;;;5090754;28;20032;-68
2021/09/03 05:17:06;;;;;;;;;;;;;;;;;;5089513;28;19999;-67
2021/09/03 05:19:32;;;;;;;;;;;;;;;;;;5090681;28;19912;-68
2021/09/03 05:24:58;;;;;;;;;;;;;;;;;;5090963;28;19922;-67
2021/09/03 05:28:04;;;;;;;;;;;;;;;;;;5152427;27;19997;-68
2021/09/03 05:30:30;;;;;;;;;;;;;;;;;;5147191;27;19912;-69
2021/09/03 05:33:17;;;;;;;;;;;;;;;;;;5089361;27;19917;-69
2021/09/03 05:35:43;;;;;;;;;;;;;;;;;;5087754;28;19912;-72
2021/09/03 05:38:09;;;;;;;;;;;;;;;;;;5089077;28;20019;-71
2021/09/03 05:40:35;;;;;;;;;;;;;;;;;;5088273;28;19915;-70
2021/09/03 05:43:01;;;;;;;;;;;;;;;;;;5088293;28;19912;-70
2021/09/03 05:45:27;;;;;;;;;;;;;;;;;;5080954;28;19913;-71
2021/09/03 05:47:54;;;;;;;;;;;;;;;;;;5067295;28;19919;-72
2021/09/03 05:51:54;;;;;;;;;;;;;;;;;;5089684;27;19917;-73
2021/09/03 05:54:20;;;;;;;;;;;;;;;;;;5089819;28;20466;-72
2021/09/03 05:56:46;;;;;;;;;;;;;;;;;;5089882;28;19999;-73
2021/09/03 06:01:55;;;;;;;;;;;;;;;;;;5090815;27;20258;-73
2021/09/03 06:04:58;;;;;;;;;;;;;;;;;;5030932;28;19920;-71
2021/09/03 06:07:24;;;;;;;;;;;;;;;;;;5029233;28;19914;-73
2021/09/03 06:09:50;;;;;;;;;;;;;;;;;;5029033;28;19917;-69
2021/09/03 06:13:14;;;;;;;;;;;;;;;;;;5161500;27;20014;-69
2021/09/03 06:16:14;;;;;;;;;;;;;;;;;;5089091;28;19916;-74
2021/09/03 06:23:22;;;;;;;;;;;;;;;;;;5090567;27;19927;-71
2021/09/03 06:25:48;;;;;;;;;;;;;;;;;;5085086;28;20015;-71
2021/09/03 06:28:14;;;;;;;;;;;;;;;;;;5090139;28;20399;-72
2021/09/03 06:30:40;;;;;;;;;;;;;;;;;;5089784;28;19950;-72
2021/09/03 06:33:36;;;;;;;;;;;;;;;;;;5111478;27;19922;-72
2021/09/03 06:36:02;;;;;;;;;;;;;;;;;;5111161;28;20003;-70
2021/09/03 06:38:31;;;;;;;;;;;;;;;;;;5118938;28;20291;-71
2021/09/03 06:42:18;;;;;;;;;;;;;;;;;;5070713;28;19913;-68
2021/09/03 06:44:44;;;;;;;;;;;;;;;;;;5103605;28;20438;-71
2021/09/03 06:47:11;;;;;;;;;;;;;;;;;;5070469;28;19913;-73
2021/09/03 06:49:37;;;;;;;;;;;;;;;;;;5070485;28;19989;-71
2021/09/03 06:52:03;;;;;;;;;;;;;;;;;;5070474;28;20361;-74
2021/09/03 06:57:47;;;;;;;;;;;;;;;;;;5111009;27;19915;-70
2021/09/03 07:00:13;;;;;;;;;;;;;;;;;;5111549;28;19948;-75
2021/09/03 07:02:39;;;;;;;;;;;;;;;;;;5110026;28;19912;-75
2021/09/03 07:05:05;;;;;;;;;;;;;;;;;;5111206;28;19908;-73
2021/09/03 07:08:11;;;;;;;;;;;;;;;;;;5086400;28;19912;-73
2021/09/03 07:11:00;;;;;;;;;;;;;;;;;;5088314;27;20420;-73
2021/09/03 07:13:26;;;;;;;;;;;;;;;;;;5087992;28;19918;-74
2021/09/03 07:15:52;;;;;;;;;;;;;;;;;;5087983;28;19913;-73
2021/09/03 07:18:18;;;;;;;;;;;;;;;;;;5097211;28;19961;-73
2021/09/03 07:24:25;;;;;;;;;;;;;;;;;;5089480;27;19927;-73
2021/09/03 07:27:50;;;;;;;;;;;;;;;;;;5090799;27;19912;-73
2021/09/03 07:30:16;;;;;;;;;;;;;;;;;;5088110;28;20330;-74
2021/09/03 07:32:44;;;;;;;;;;;;;;;;;;5090197;28;19966;-74
2021/09/03 07:35:11;;;;;;;;;;;;;;;;;;5089296;28;19909;-73
2021/09/03 07:37:37;;;;;;;;;;;;;;;;;;5087948;28;19908;-72
2021/09/03 07:40:03;;;;;;;;;;;;;;;;;;5088595;28;19923;-67
2021/09/03 07:42:29;;;;;;;;;;;;;;;;;;5090804;28;19912;-75
2021/09/03 07:44:55;;;;;;;;;;;;;;;;;;5089471;28;19915;-75
2021/09/03 07:48:59;;;;;;;;;;;;;;;;;;5111554;27;19916;-74
2021/09/03 07:51:25;;;;;;;;;;;;;;;;;;5122566;28;19920;-74
2021/09/03 07:53:52;;;;;;;;;;;;;;;;;;5117870;28;19931;-73
2021/09/03 07:57:08;;;;;;;;;;;;;;;;;;5112033;27;20244;-75
2021/09/03 07:59:34;;;;;;;;;;;;;;;;;;5111798;28;20403;-73
2021/09/03 08:02:00;;;;;;;;;;;;;;;;;;5110382;28;19909;-74
2021/09/03 08:04:26;;;;;;;;;;;;;;;;;;5111493;28;19912;-76
2021/09/03 08:06:52;;;;;;;;;;;;;;;;;;5113834;28;19930;-73
2021/09/03 08:09:18;;;;;;;;;;;;;;;;;;5119469;28;19912;-72
2021/09/03 08:11:44;;;;;;;;;;;;;;;;;;5119728;27;19907;-73
2021/09/03 08:14:10;;;;;;;;;;;;;;;;;;5121621;28;19908;-74
2021/09/03 08:16:36;;;;;;;;;;;;;;;;;;5119243;28;20281;-74
2021/09/03 08:19:04;;;;;;;;;;;;;;;;;;5121837;28;20014;-74
2021/09/03 08:21:50;;;;;;;;;;;;;;;;;;5129899;27;19916;-76
2021/09/03 08:24:16;;;;;;;;;;;;;;;;;;5122792;27;19999;-71
2021/09/03 08:26:43;;;;;;;;;;;;;;;;;;5110493;28;19943;-71
2021/09/03 08:29:09;;;;;;;;;;;;;;;;;;5109079;28;19908;-71
2021/09/03 08:31:35;;;;;;;;;;;;;;;;;;5107917;28;20279;-72
2021/09/03 08:35:37;;;;;;;;;;;;;;;;;;5089592;27;19917;-70
2021/09/03 08:38:03;;;;;;;;;;;;;;;;;;5090598;28;20007;-70
2021/09/03 08:40:29;;;;;;;;;;;;;;;;;;5090505;28;19959;-71
2021/09/03 08:42:55;;;;;;;;;;;;;;;;;;5089351;28;19944;-71
2021/09/03 08:47:03;;;;;;;;;;;;;;;;;;5091581;28;20304;-71
2021/09/03 08:49:29;;;;;;;;;;;;;;;;;;5090848;28;20007;-71
2021/09/03 08:51:55;;;;;;;;;;;;;;;;;;5091418;28;19944;-71
2021/09/03 08:54:21;;;;;;;;;;;;;;;;;;5091068;28;19951;-71
2021/09/03 08:56:47;;;;;;;;;;;;;;;;;;5090532;28;19966;-71
2021/09/03 08:59:12;;;;;;;;;;;;;;;;;;5090977;28;19919;-71
2021/09/03 09:01:39;;;;;;;;;;;;;;;;;;5089697;28;20422;-71
2021/09/03 09:04:04;;;;;;;;;;;;;;;;;;5088936;28;20269;-71
2021/09/03 09:06:31;;;;;;;;;;;;;;;;;;5089402;28;20003;-73
2021/09/03 09:08:57;;;;;;;;;;;;;;;;;;5089344;28;19908;-72
2021/09/03 09:11:23;;;;;;;;;;;;;;;;;;5082766;28;20341;-72
2021/09/03 09:13:49;;;;;;;;;;;;;;;;;;5090559;28;20399;-71
2021/09/03 09:16:15;;;;;;;;;;;;;;;;;;5090496;28;19909;-71
2021/09/03 09:18:41;;;;;;;;;;;;;;;;;;5088858;28;19908;-71
2021/09/03 09:21:07;;;;;;;;;;;;;;;;;;5088915;28;19909;-71
2021/09/03 09:23:33;;;;;;;;;;;;;;;;;;5089111;28;20265;-72
2021/09/03 09:25:59;;;;;;;;;;;;;;;;;;5088835;28;19916;-74
2021/09/03 09:28:25;;;;;;;;;;;;;;;;;;5088003;28;20424;-69
2021/09/03 09:30:51;;;;;;;;;;;;;;;;;;5089526;28;19999;-69
2021/09/03 09:34:55;;;;;;;;;;;;;;;;;;5111440;27;19912;-68
2021/09/03 09:37:21;;;;;;;;;;;;;;;;;;5112265;28;20002;-68
2021/09/03 09:39:47;;;;;;;;;;;;;;;;;;5110660;28;19995;-69
2021/09/03 09:42:13;;;;;;;;;;;;;;;;;;5118831;28;19919;-70
2021/09/03 09:44:39;;;;;;;;;;;;;;;;;;5117628;27;19912;-68
2021/09/03 09:47:06;;;;;;;;;;;;;;;;;;5130614;28;19915;-68
2021/09/03 09:49:32;;;;;;;;;;;;;;;;;;5130772;27;19994;-69
2021/09/03 09:51:58;;;;;;;;;;;;;;;;;;5131307;27;19972;-68
2021/09/03 09:54:24;;;;;;;;;;;;;;;;;;5131740;27;19976;-67
2021/09/03 09:56:50;;;;;;;;;;;;;;;;;;5132069;27;19953;-68
2021/09/03 09:59:16;;;;;;;;;;;;;;;;;;5131304;27;19915;-70
2021/09/03 10:01:42;;;;;;;;;;;;;;;;;;5130546;27;19918;-68
2021/09/03 10:04:08;;;;;;;;;;;;;;;;;;5110481;28;19908;-71
2021/09/03 10:06:34;;;;;;;;;;;;;;;;;;5108544;28;20011;-70
2021/09/03 10:09:00;;;;;;;;;;;;;;;;;;5108639;28;19933;-68
2021/09/03 10:27:54;;;;;;;;;;;;;;;;;;5129974;28;19981;-67
2021/09/03 10:30:20;;;;;;;;;;;;;;;;;;5130603;27;20360;-67
2021/09/03 10:32:46;;;;;;;;;;;;;;;;;;5130315;27;20352;-67
2021/09/03 10:35:12;;;;;;;;;;;;;;;;;;5130856;27;19908;-68
2021/09/03 10:37:38;;;;;;;;;;;;;;;;;;5130735;27;19907;-68
2021/09/03 10:40:05;;;;;;;;;;;;;;;;;;5130895;27;19930;-68
2021/09/03 10:42:31;;;;;;;;;;;;;;;;;;5130473;27;20019;-69
2021/09/03 10:44:57;;;;;;;;;;;;;;;;;;5110057;27;20011;-69
2021/09/03 10:47:23;;;;;;;;;;;;;;;;;;5107133;28;19915;-68
2021/09/03 10:49:49;;;;;;;;;;;;;;;;;;5110627;28;20310;-69
2021/09/03 10:52:15;;;;;;;;;;;;;;;;;;5115610;28;19916;-69
2021/09/03 10:54:41;;;;;;;;;;;;;;;;;;5117046;28;19919;-68
2021/09/03 10:57:07;;;;;;;;;;;;;;;;;;5115592;28;19947;-68
2021/09/03 10:59:36;;;;;;;;;;;;;;;;;;5112684;28;19959;-69
2021/09/03 11:02:02;;;;;;;;;;;;;;;;;;5096350;28;19947;-68
2021/09/03 11:04:28;;;;;;;;;;;;;;;;;;5098468;28;19919;-70
2021/09/03 11:06:54;;;;;;;;;;;;;;;;;;5103820;28;19911;-71
2021/09/03 11:09:20;;;;;;;;;;;;;;;;;;5106395;28;19969;-69
2021/09/03 11:11:46;;;;;;;;;;;;;;;;;;5104069;28;19908;-68
2021/09/03 11:14:13;;;;;;;;;;;;;;;;;;5094584;28;19969;-69
2021/09/03 11:16:39;;;;;;;;;;;;;;;;;;5093675;28;19915;-69
2021/09/03 11:19:05;;;;;;;;;;;;;;;;;;5093635;28;20038;-68
2021/09/03 11:21:31;;;;;;;;;;;;;;;;;;5092140;28;19908;-69
2021/09/03 11:23:57;;;;;;;;;;;;;;;;;;5090626;28;20415;-68
2021/09/03 11:26:23;;;;;;;;;;;;;;;;;;5092499;28;19908;-67
2021/09/03 11:28:49;;;;;;;;;;;;;;;;;;5094158;28;19999;-69
2021/09/03 11:31:15;;;;;;;;;;;;;;;;;;5095286;28;19915;-68
2021/09/03 11:33:41;;;;;;;;;;;;;;;;;;5102660;28;19924;-68
2021/09/03 11:36:07;;;;;;;;;;;;;;;;;;5106155;28;19970;-70
2021/09/03 11:38:33;;;;;;;;;;;;;;;;;;5112175;28;19914;-71
2021/09/03 11:40:59;;;;;;;;;;;;;;;;;;5098188;28;20441;-69
2021/09/03 11:43:25;;;;;;;;;;;;;;;;;;5108978;28;19951;-69
2021/09/03 11:45:51;;;;;;;;;;;;;;;;;;5096105;28;19909;-68
2021/09/03 11:48:18;;;;;;;;;;;;;;;;;;5107528;28;19957;-69
2021/09/03 11:50:44;;;;;;;;;;;;;;;;;;5106215;28;20267;-70
2021/09/03 11:53:10;;;;;;;;;;;;;;;;;;5103861;28;19991;-70
2021/09/03 11:55:36;;;;;;;;;;;;;;;;;;5102637;28;19919;-68
2021/09/03 11:58:02;;;;;;;;;;;;;;;;;;5094071;28;20337;-68
2021/09/03 12:00:34;;;;;;;18.70;12.85;;;;;;;;;;5093686;28;20517;-68
2021/09/03 12:03:02;;;;;;;6.20;3.17;;;;;;;;;;5092260;28;20027;-68
2021/09/03 12:05:28;;;;;;;6.47;3.17;;;;;;;;;;5093846;28;20380;-68
2021/09/03 12:08:02;;;;;;;6.80;2.95;;;;;;;;;;5094595;28;20039;-69
2021/09/03 12:10:32;;;;;;;6.68;3.17;;;;;;;;;;5094711;28;20021;-70
2021/09/03 12:13:04;;;;;;;6.53;3.40;;;;;;;;;;5094138;28;20244;-69
2021/09/03 12:15:30;;;;;;;5.93;2.70;;;;;;;;;;5094361;28;20179;-71
2021/09/03 12:17:56;;;;;;;10.48;3.03;;;;;;;;;;5094421;28;20017;-70
2021/09/03 12:20:23;;;;;;;6.32;3.08;;;;;;;;;;5093839;28;20062;-70
2021/09/03 12:22:53;;;;;;;6.47;3.10;;;;;;;;;;5093819;28;20039;-69
2021/09/03 12:25:29;;;;;;;6.50;3.50;;;;;;;;;;5094300;28;20102;-69
2021/09/03 12:28:14;;;;;;;35.72;8.43;;;;;;;;;;5094133;28;20023;-70
2021/09/03 12:30:41;;;;;;;6.97;3.72;;;;;;;;;;5079955;28;20484;-70
2021/09/03 12:33:18;;;;;;;5.65;3.00;;;;;;;;;;5103153;28;20048;-68
2021/09/03 12:35:44;;;;;;;7.88;3.30;;;;;;;;;;5114014;28;20106;-69
2021/09/03 12:38:11;;;;;;;5.18;2.95;;;;;;;;;;5113149;28;20024;-68
2021/09/03 12:40:37;;;;;;;7.82;2.65;;;;;;;;;;5098081;28;20111;-68
2021/09/03 12:43:03;;;;;;;5.25;2.90;;;;;;;;;;5093944;28;20023;-67
2021/09/03 12:45:44;;;;;;;8.18;2.95;;;;;;;;;;5078036;28;20021;-68
2021/09/03 12:48:11;;;;;;;5.28;2.83;;;;;;;;;;5073472;28;20025;-69
2021/09/03 12:50:37;;;;;;;5.40;2.65;;;;;;;;;;5072256;28;20032;-68
2021/09/03 12:53:03;;;;;;;6.05;3.00;;;;;;;;;;5073820;28;20024;-67
2021/09/03 12:55:29;;;;;;;8.63;4.60;;;;;;;;;;5084240;28;20024;-68
2021/09/03 12:57:56;;;;;;;5.07;2.72;;;;;;;;;;5092673;28;20028;-69
2021/09/03 13:00:22;;;;;;;6.07;3.05;;;;;;;;;;5090040;28;20258;-69
2021/09/03 13:02:48;;;;;;;9.20;3.40;;;;;;;;;;5088313;28;20441;-69
2021/09/03 13:05:14;;;;;;;7.05;3.45;;;;;;;;;;5090332;28;20024;-69
2021/09/03 13:07:40;;;;;;;6.28;3.10;;;;;;;;;;5090257;28;20020;-69
2021/09/03 13:10:07;;;;;;;6.80;3.65;;;;;;;;;;5088489;28;20016;-69
2021/09/03 13:12:33;;;;;;;7.38;3.50;;;;;;;;;;5090962;28;20514;-70
2021/09/03 13:14:59;;;;;;;7.22;3.60;;;;;;;;;;5089583;28;20089;-68
2021/09/03 13:17:25;;;;;;;6.18;3.05;;;;;;;;;;5091741;28;20024;-67
2021/09/03 13:19:51;;;;;;;9.45;4.25;;;;;;;;;;5091552;28;20388;-68
2021/09/03 13:22:17;;;;;;;8.13;3.42;;;;;;;;;;5091604;28;20103;-68
2021/09/03 13:24:44;;;;;;;7.88;3.30;;;;;;;;;;5090531;28;20024;-69
2021/09/03 13:27:10;;;;;;;6.30;3.17;;;;;;;;;;5092431;28;20350;-70
2021/09/03 13:29:36;;;;;;;7.32;3.25;;;;;;;;;;5093164;28;20027;-70
2021/09/03 13:32:02;;;;;;;6.10;3.05;;;;;;;;;;5093028;28;20024;-70
2021/09/03 13:34:29;;;;;;;5.88;3.38;;;;;;;;;;5093158;28;20047;-70
2021/09/03 13:36:55;;;;;;;7.22;3.22;;;;;;;;;;5092969;28;20052;-70
2021/09/03 13:39:21;;;;;;;9.85;4.30;;;;;;;;;;5093400;28;20045;-69
2021/09/03 13:41:47;;;;;;;7.90;3.70;;;;;;;;;;5093543;28;20021;-68
2021/09/03 13:44:14;;;;;;;5.57;2.72;;;;;;;;;;5092799;28;20473;-69
2021/09/03 13:46:40;;;;;;;6.32;3.38;;;;;;;;;;5093154;28;20024;-69
2021/09/03 13:49:08;;;;;;;6.03;2.97;;;;;;;;;;5093239;28;20028;-68
2021/09/03 13:51:34;;;;;;;8.32;3.60;;;;;;;;;;5092988;28;20013;-69
2021/09/03 13:54:00;;;;;;;10.05;3.63;;;;;;;;;;5091843;28;20025;-69
2021/09/03 13:56:27;;;;;;;7.97;3.78;;;;;;;;;;5093015;28;20016;-68
2021/09/03 13:58:53;;;;;;;7.18;3.85;;;;;;;;;;5092712;28;20361;-68
2021/09/03 14:01:19;;;;;;;10.88;4.45;;;;;;;;;;5092540;28;20151;-69
2021/09/03 14:03:46;;;;;;;6.65;3.15;;;;;;;;;;5090937;28;20523;-68
2021/09/03 14:06:12;;;;;;;8.10;3.40;;;;;;;;;;5090784;28;20365;-69
2021/09/03 14:08:42;;;;;;;7.28;3.83;;;;;;;;;;5091010;28;20524;-70
2021/09/03 14:11:09;;;;;;;7.50;4.25;;;;;;;;;;5091200;28;20524;-69
2021/09/03 14:13:35;;;;;;;8.00;3.83;;;;;;;;;;5090520;28;20115;-69
2021/09/03 14:16:01;;;;;;;6.13;2.85;;;;;;;;;;5092709;28;20025;-69
2021/09/03 14:18:27;;;;;;;5.30;2.67;;;;;;;;;;5092604;28;20024;-70
2021/09/03 14:20:53;;;;;;;6.20;3.25;;;;;;;;;;5095117;28;20476;-69
2021/09/03 14:23:20;;;;;;;7.18;2.97;;;;;;;;;;5096657;28;20020;-69
2021/09/03 14:25:46;;;;;;;8.57;3.75;;;;;;;;;;5095540;28;20127;-69
2021/09/03 14:28:12;;;;;;;4.78;3.03;;;;;;;;;;5096261;28;20415;-68
2021/09/03 14:30:39;;;;;;;7.63;3.65;;;;;;;;;;5095340;28;20024;-70
2021/09/03 14:33:05;;;;;;;7.13;3.55;;;;;;;;;;5095937;28;20093;-69
2021/09/03 14:35:32;;;;;;;6.68;3.33;;;;;;;;;;5096594;28;20132;-69
2021/09/03 14:37:58;;;;;;;6.28;2.75;;;;;;;;;;5096502;28;20081;-69
2021/09/03 14:40:24;;;;;;;8.57;3.38;;;;;;;;;;5096032;28;20032;-69
2021/09/03 14:42:50;;;;;;;5.03;2.75;;;;;;;;;;5096330;28;20033;-69
2021/09/03 14:45:17;;;;;;;11.18;3.97;;;;;;;;;;5096279;28;20480;-68
2021/09/03 14:47:43;;;;;;;7.93;3.42;;;;;;;;;;5095692;28;20464;-69
2021/09/03 14:50:09;;;;;;;6.07;3.25;;;;;;;;;;5096524;28;20028;-69
2021/09/03 14:52:35;;;;;;;6.43;3.38;;;;;;;;;;5096297;28;20028;-69
2021/09/03 14:55:02;;;;;;;5.97;3.10;;;;;;;;;;5095813;28;20028;-70
2021/09/03 14:57:28;;;;;;;7.10;3.50;;;;;;;;;;5096109;28;20380;-69
2021/09/03 14:59:54;;;;;;;6.15;2.92;;;;;;;;;;5094855;28;20147;-70
2021/09/03 15:02:21;;;;;;;6.03;3.33;;;;;;;;;;5095702;28;20027;-69
2021/09/03 15:04:47;;;;;;;5.43;2.80;;;;;;;;;;5096028;28;20028;-69
2021/09/03 15:07:13;;;;;;;4.53;2.58;;;;;;;;;;5096068;28;20043;-69
2021/09/03 15:09:39;;;;;;;7.90;3.38;;;;;;;;;;5095673;28;20028;-69
2021/09/03 15:12:09;;;;;;;5.70;3.03;;;;;;;;;;5094602;28;20028;-67
2021/09/03 15:14:35;;;;;;;6.45;2.85;;;;;;;;;;5094403;28;20047;-69
2021/09/03 15:17:01;;;;;;;3.90;2.45;;;;;;;;;;5095381;28;20389;-67
2021/09/03 15:19:27;;;;;;;6.95;2.65;;;;;;;;;;5095731;28;20052;-68
2021/09/03 15:21:55;;;;;;;5.47;2.25;;;;;;;;;;5095777;28;20024;-69
2021/09/03 15:24:21;;;;;;;8.15;3.53;;;;;;;;;;5095235;28;20538;-70
2021/09/03 15:26:47;;;;;;;8.20;3.45;;;;;;;;;;5095553;28;20028;-70
2021/09/03 15:29:14;;;;;;;5.47;2.70;;;;;;;;;;5095586;28;20404;-69
2021/09/03 15:31:41;;;;;;;6.95;2.80;;;;;;;;;;5095114;28;20051;-69
2021/09/03 15:34:07;;;;;;;7.57;3.15;;;;;;;;;;5095209;28;20058;-67
2021/09/03 15:36:33;;;;;;;6.82;2.83;;;;;;;;;;5094998;28;20027;-70
2021/09/03 15:39:03;;;;;;;7.60;3.03;;;;;;;;;;5095337;28;20020;-70
2021/09/03 15:41:29;;;;;;;4.93;2.40;;;;;;;;;;5095522;28;20051;-70
2021/09/03 15:43:55;;;;;;;5.68;2.95;;;;;;;;;;5095275;28;20068;-70
2021/09/03 15:46:22;;;;;;;5.50;2.58;;;;;;;;;;5095230;28;20016;-70
2021/09/03 15:48:48;;;;;;;5.50;3.10;;;;;;;;;;5095187;28;20032;-69
2021/09/03 15:51:14;;;;;;;6.05;2.95;;;;;;;;;;5094776;28;20016;-70
2021/09/03 15:53:40;;;;;;;8.73;3.33;;;;;;;;;;5095054;28;20039;-70
2021/09/03 15:56:06;;;;;;;5.85;2.85;;;;;;;;;;5095058;28;20368;-70
2021/09/03 15:58:33;;;;;;;7.43;3.10;;;;;;;;;;5093235;28;20499;-70
2021/09/03 16:01:04;;;;;;;6.32;2.90;;;;;;;;;;5094854;28;20074;-69
2021/09/03 16:03:31;;;;;;;6.13;2.43;;;;;;;;;;5094955;28;20044;-69
2021/09/03 16:05:57;;;;;;;8.60;3.35;;;;;;;;;;5094516;28;20255;-68
2021/09/03 16:08:23;;;;;;;8.15;3.75;;;;;;;;;;5094893;28;20411;-69
2021/09/03 16:10:50;;;;;;;6.32;3.15;;;;;;;;;;5094767;28;20063;-70
2021/09/03 16:13:17;;;;;;;5.38;2.75;;;;;;;;;;5094293;28;20134;-68
2021/09/03 16:15:43;;;;;;;7.63;2.80;;;;;;;;;;5094629;28;20032;-68
2021/09/03 16:18:09;;;;;;;8.88;4.15;;;;;;;;;;5094719;28;20069;-69
2021/09/03 16:20:36;;;;;;;6.63;3.40;;;;;;;;;;5094134;28;20076;-68
2021/09/03 16:23:02;;;;;;;5.05;3.10;;;;;;;;;;5093307;28;20085;-69
2021/09/03 16:25:28;;;;;;;6.22;3.15;;;;;;;;;;5094471;28;20043;-69
2021/09/03 16:27:54;;;;;;;6.50;2.80;;;;;;;;;;5092686;28;20024;-69
2021/09/03 16:30:20;;;;;;;4.30;2.53;;;;;;;;;;5094328;28;20369;-69
2021/09/03 16:32:46;;;;;;;9.73;2.95;;;;;;;;;;5093705;28;20020;-68
2021/09/03 16:35:13;;;;;;;6.53;3.50;;;;;;;;;;5094602;28;20487;-68
2021/09/03 16:37:39;;;;;;;4.55;2.95;;;;;;;;;;5094300;28;20028;-70
2021/09/03 16:40:06;;;;;;;5.22;2.83;;;;;;;;;;5092493;28;20446;-69
2021/09/03 16:42:32;;;;;;;6.55;3.15;;;;;;;;;;5093672;28;20021;-69
2021/09/03 16:44:58;;;;;;;7.40;3.30;;;;;;;;;;5094213;28;20016;-69
2021/09/03 16:47:25;;;;;;;6.57;3.38;;;;;;;;;;5093925;28;20465;-69
2021/09/03 16:49:51;;;;;;;8.05;4.20;;;;;;;;;;5094116;28;20070;-69
2021/09/03 16:52:17;;;;;;;7.45;4.38;;;;;;;;;;5094002;28;20495;-69
2021/09/03 16:54:45;;;;;;;8.98;3.83;;;;;;;;;;5092229;28;20036;-69
2021/09/03 16:57:12;;;;;;;5.75;3.20;;;;;;;;;;5093972;28;20040;-71
2021/09/03 16:59:38;;;;;;;8.05;3.38;;;;;;;;;;5093849;28;20059;-70
2021/09/03 17:02:05;;;;;;;8.20;4.10;;;;;;;;;;5093525;28;20020;-71
2021/09/03 17:04:31;;;;;;;10.77;5.03;;;;;;;;;;5093823;28;20027;-69
2021/09/03 17:06:58;;;;;;;9.90;4.60;;;;;;;;;;5093905;28;20540;-69
2021/09/03 17:09:25;;;;;;;6.85;3.05;;;;;;;;;;5093405;28;20031;-69
2021/09/03 17:11:51;;;;;;;10.85;7.45;;;;;;;;;;5093869;28;20035;-69
2021/09/03 17:14:17;;;;;;;6.30;3.30;;;;;;;;;;5092424;28;20039;-69
2021/09/03 17:16:43;;;;;;;6.38;3.10;;;;;;;;;;5093326;28;20107;-69
2021/09/03 17:19:10;;;;;;;9.48;3.30;;;;;;;;;;5093647;28;20089;-69
2021/09/03 17:21:36;;;;;;;5.38;3.03;;;;;;;;;;5093904;28;20020;-69
2021/09/03 17:24:02;;;;;;;5.95;3.13;;;;;;;;;;5093133;28;20124;-69
2021/09/03 17:26:28;;;;;;;5.60;3.03;;;;;;;;;;5093772;28;20516;-69
2021/09/03 17:28:56;;;;;;;6.07;3.15;;;;;;;;;;5093583;28;20034;-69
2021/09/03 17:31:22;;;;;;;9.65;3.92;;;;;;;;;;5091776;28;20024;-69
2021/09/03 17:33:48;;;;;;;7.30;3.22;;;;;;;;;;5093250;28;20055;-69
2021/09/03 17:36:15;;;;;;;6.47;3.80;;;;;;;;;;5093125;28;20028;-69
2021/09/03 17:38:41;;;;;;;7.57;3.47;;;;;;;;;;5093406;28;20507;-69
2021/09/03 17:41:08;;;;;;;6.82;3.80;;;;;;;;;;5093376;28;20056;-69
2021/09/03 17:43:35;;;;;;;7.47;3.65;;;;;;;;;;5093031;28;20502;-69
2021/09/03 17:46:02;;;;;;;10.05;3.78;;;;;;;;;;5093310;28;20088;-68
2021/09/03 17:48:28;;;;;;;9.85;4.15;;;;;;;;;;5093489;28;20020;-69
2021/09/03 17:51:43;;;;;;;11.80;4.75;;;;;;;;;;5111037;27;20408;-69
2021/09/03 17:54:10;;;;;;;8.50;3.58;;;;;;;;;;5111287;28;20553;-69
2021/09/03 17:56:37;;;;;;;7.85;3.97;;;;;;;;;;5111461;28;20028;-69
2021/09/03 17:59:04;;;;;;;6.50;3.55;;;;;;;;;;5111084;28;20442;-69
2021/09/03 18:02:38;;;;;;;8.30;3.58;;;;;;;;;;5152560;27;20370;-68
2021/09/03 18:05:05;;;;;;;7.43;3.42;;;;;;;;;;5151847;27;20027;-68